Overview Statistics Trail Chart Weather Telemetry Raw packets
 

This is the latest recevied weather packets stored in our database for station/object SV9TNF-51. If no packets are shown the sender has not sent any weather packets the latest 10 day(s).

<< 20 21 22 23 24 25 26 >>
Time Temp. Humidity Pressure Rain* Wind** Luminosity Snow
1788528883 33.33° C 39% 1011.5 hPa 0 mm 1.79 m/s, 123° - -
1788528584 34.44° C 35% 1011.5 hPa 0 mm 1.79 m/s, 148° - -
1788528284 33.33° C 39% 1011.5 hPa 0 mm 1.34 m/s, 132° - -
1788527983 32.78° C 40% 1011.5 hPa 0 mm 9.83 m/s, 354° - -
1788527683 32.78° C 40% 1011.5 hPa 0 mm 4.92 m/s, 343° - -
1788527383 32.78° C 42% 1011.5 hPa 0 mm 5.36 m/s, 77° - -
1788527083 32.78° C 41% 1011.5 hPa 0 mm 5.81 m/s, 142° - -
1788526783 33.33° C 41% 1011.5 hPa 0 mm 8.49 m/s, 131° - -
1788526483 34.44° C 39% 1011.5 hPa 0 mm 2.24 m/s, 204° - -
1788526183 33.89° C 39% 1011.5 hPa 0 mm 2.24 m/s, 9° - -
1788525882 33.89° C 38% 1011.5 hPa 0 mm 1.79 m/s, 127° - -
1788525583 33.33° C 39% 1011.5 hPa 0 mm 6.26 m/s, 319° - -
1788525282 34.44° C 36% 1011.5 hPa 0 mm 3.58 m/s, 141° - -
1788524998 35° C 36% 1011.5 hPa 0 mm 1.34 m/s, 300° - -
1788524682 35.56° C 34% 1011.5 hPa 0 mm 1.34 m/s, 139° - -
1788524382 35° C 35% 1011.5 hPa 0 mm 1.79 m/s, 173° - -
1788524082 34.44° C 37% 1011.5 hPa 0 mm 3.13 m/s, 135° - -
1788523782 32.78° C 39% 1011.9 hPa 0 mm 11.18 m/s, 317° - -
1788523482 33.89° C 38% 1011.9 hPa 0 mm 9.83 m/s, 345° - -
1788523182 33.89° C 39% 1011.9 hPa 0 mm 4.02 m/s, 332° - -
1788522881 34.44° C 38% 1011.9 hPa 0 mm 3.13 m/s, 140° - -
1788522581 33.33° C 40% 1011.9 hPa 0 mm 3.13 m/s, 163° - -
1788522281 33.33° C 39% 1011.9 hPa 0 mm 7.6 m/s, 337° - -
1788521981 33.89° C 39% 1011.9 hPa 0 mm 2.68 m/s, 128° - -
1788521681 33.89° C 38% 1012.2 hPa 0 mm 6.26 m/s, 336° - -

* Rain latest hour (hover to see other rain measurements)
** Current wind speed in m/s (hover to see current wind gust speed)